createdAt,value
2023-03-18T00:00:46.656Z,5.07
2023-03-18T00:03:13.408Z,6.10
2023-03-18T00:05:41.103Z,6.80
2023-03-18T00:08:07.937Z,5.53
2023-03-18T00:10:35.332Z,5.10
2023-03-18T00:13:04.454Z,5.67
2023-03-18T00:15:31.472Z,5.17
2023-03-18T00:17:59.813Z,4.80
2023-03-18T00:20:38.534Z,6.13
2023-03-18T00:23:09.117Z,6.93
2023-03-18T00:25:37.668Z,6.30
2023-03-18T00:28:06.575Z,7.00
2023-03-18T00:30:38.088Z,5.83
2023-03-18T00:33:05.341Z,6.67
2023-03-18T00:35:32.428Z,6.43
2023-03-18T00:38:00.441Z,5.90
2023-03-18T00:40:43.232Z,6.73
2023-03-18T00:43:12.759Z,4.97
2023-03-18T00:45:40.993Z,6.83
2023-03-18T00:48:09.035Z,5.83
2023-03-18T00:50:37.136Z,6.57
2023-03-18T00:53:04.380Z,8.10
2023-03-18T00:55:31.435Z,6.73
2023-03-18T00:57:58.143Z,6.57
2023-03-18T01:00:26.300Z,9.70
2023-03-18T01:02:53.442Z,7.83
2023-03-18T01:05:20.829Z,8.03
2023-03-18T01:07:48.307Z,6.43
2023-03-18T01:10:16.276Z,10.93
2023-03-18T01:12:46.681Z,6.70
2023-03-18T01:15:16.889Z,6.37
2023-03-18T01:17:44.240Z,6.20
2023-03-18T01:20:12.989Z,8.70
2023-03-18T01:22:42.312Z,7.20
2023-03-18T01:25:10.255Z,9.17
2023-03-18T01:27:37.550Z,6.77
2023-03-18T01:30:06.138Z,10.20
2023-03-18T01:32:33.190Z,8.90
2023-03-18T01:35:00.129Z,8.37
2023-03-18T01:37:29.028Z,8.03
2023-03-18T01:39:55.981Z,7.90
2023-03-18T01:42:22.956Z,6.93
2023-03-18T01:44:49.682Z,7.93
2023-03-18T01:47:21.432Z,8.17
2023-03-18T01:49:50.204Z,7.60
2023-03-18T01:52:24.955Z,6.10
2023-03-18T01:55:03.959Z,9.37
2023-03-18T01:57:32.772Z,7.47
2023-03-18T02:00:00.654Z,7.53
2023-03-18T02:02:28.659Z,6.67
2023-03-18T02:04:58.044Z,5.67
2023-03-18T02:07:30.386Z,6.27
2023-03-18T02:10:04.246Z,6.50
2023-03-18T02:12:33.884Z,6.47
2023-03-18T02:15:09.062Z,7.57
2023-03-18T02:17:41.495Z,5.67
2023-03-18T02:20:27.905Z,7.40
2023-03-18T02:23:00.732Z,5.73
2023-03-18T02:25:50.052Z,8.40
2023-03-18T02:28:24.786Z,5.80
2023-03-18T02:30:56.625Z,6.97
2023-03-18T02:33:28.711Z,9.30
2023-03-18T02:36:03.826Z,9.10
2023-03-18T02:38:30.554Z,12.07
2023-03-18T02:40:57.272Z,6.63
2023-03-18T02:43:30.492Z,9.17
2023-03-18T02:46:16.789Z,10.20
2023-03-18T02:48:46.031Z,6.17
2023-03-18T02:51:14.807Z,7.47
2023-03-18T02:53:42.023Z,6.20
2023-03-18T02:56:09.277Z,6.87
2023-03-18T02:58:36.929Z,6.60
2023-03-18T03:01:05.632Z,12.00
2023-03-18T03:03:32.738Z,9.40
2023-03-18T03:05:59.546Z,8.17
2023-03-18T03:08:26.706Z,7.27
2023-03-18T03:10:53.658Z,8.37
2023-03-18T03:13:22.205Z,5.77
2023-03-18T03:15:49.703Z,5.80
2023-03-18T03:18:16.865Z,8.67
2023-03-18T03:20:44.888Z,8.63
2023-03-18T03:23:14.194Z,6.20
2023-03-18T03:25:41.991Z,6.40
2023-03-18T03:28:08.940Z,6.13
2023-03-18T03:30:36.681Z,8.10
2023-03-18T03:33:04.354Z,7.33
2023-03-18T03:35:31.300Z,7.50
2023-03-18T03:37:58.207Z,6.53
2023-03-18T03:40:25.171Z,7.37
2023-03-18T03:42:52.275Z,6.30
2023-03-18T03:45:20.141Z,7.40
2023-03-18T03:47:47.441Z,6.30
2023-03-18T03:50:15.162Z,7.57
2023-03-18T03:52:42.444Z,7.37
2023-03-18T03:55:12.774Z,5.90
2023-03-18T03:57:41.928Z,7.80
2023-03-18T04:00:15.515Z,5.90
2023-03-18T04:02:44.704Z,5.27
2023-03-18T04:05:13.909Z,6.63
2023-03-18T04:07:42.134Z,6.07
2023-03-18T04:10:10.841Z,7.63
2023-03-18T04:12:39.068Z,7.83
2023-03-18T04:15:06.952Z,8.47
2023-03-18T04:17:34.917Z,6.13
2023-03-18T04:20:02.109Z,5.93
2023-03-18T04:22:29.611Z,5.23
2023-03-18T04:24:56.542Z,8.00
2023-03-18T04:27:23.234Z,6.17
2023-03-18T04:29:50.045Z,6.40
2023-03-18T04:32:17.171Z,6.00
2023-03-18T04:34:44.648Z,7.40
2023-03-18T04:37:11.807Z,6.13
2023-03-18T04:39:39.461Z,5.53
2023-03-18T04:42:06.445Z,6.03
2023-03-18T04:44:33.280Z,6.57
2023-03-18T04:47:00.866Z,6.80
2023-03-18T04:49:27.578Z,5.80
2023-03-18T04:51:54.872Z,6.67
2023-03-18T04:54:23.150Z,9.07
2023-03-18T04:56:50.651Z,5.80
2023-03-18T04:59:18.262Z,5.33
2023-03-18T05:01:44.977Z,7.03
2023-03-18T05:04:11.842Z,9.80
2023-03-18T05:06:38.524Z,7.37
2023-03-18T05:09:05.822Z,6.60
2023-03-18T05:11:33.081Z,8.17
2023-03-18T05:13:59.830Z,4.53
2023-03-18T05:16:26.629Z,5.97
2023-03-18T05:18:53.410Z,7.30
2023-03-18T05:21:20.333Z,5.97
2023-03-18T05:23:47.152Z,4.80
2023-03-18T05:26:13.860Z,5.00
2023-03-18T05:28:40.639Z,6.33
2023-03-18T05:31:07.481Z,5.63
2023-03-18T05:33:34.265Z,7.00
2023-03-18T05:36:01.108Z,4.53
2023-03-18T05:38:28.158Z,7.23
2023-03-18T05:40:56.545Z,8.20
2023-03-18T05:43:23.838Z,4.67
2023-03-18T05:45:51.253Z,5.23
2023-03-18T05:48:18.035Z,5.80
2023-03-18T05:50:45.141Z,5.37
2023-03-18T05:53:12.099Z,6.90
2023-03-18T05:55:40.428Z,6.83
2023-03-18T05:58:07.428Z,5.77
2023-03-18T06:00:35.496Z,5.70
2023-03-18T06:03:02.460Z,5.33
2023-03-18T06:05:29.933Z,5.27
2023-03-18T06:07:57.128Z,5.33
2023-03-18T06:10:25.192Z,4.77
2023-03-18T06:12:54.893Z,6.30
2023-03-18T06:15:22.084Z,7.30
2023-03-18T06:17:48.897Z,7.80
2023-03-18T06:20:16.222Z,8.07
2023-03-18T06:22:48.884Z,6.87
2023-03-18T06:25:21.090Z,8.77
2023-03-18T06:27:48.060Z,9.23
2023-03-18T06:30:16.355Z,7.43
2023-03-18T06:32:43.544Z,8.10
2023-03-18T06:35:11.770Z,8.97
2023-03-18T06:37:39.283Z,7.70
2023-03-18T06:40:08.034Z,8.23
2023-03-18T06:42:35.097Z,7.80
2023-03-18T06:45:02.084Z,7.70
2023-03-18T06:47:28.882Z,13.53
2023-03-18T06:49:56.760Z,12.33
2023-03-18T06:52:23.700Z,9.00
2023-03-18T06:54:50.755Z,8.73
2023-03-18T06:57:17.866Z,10.03
2023-03-18T06:59:45.593Z,9.63
2023-03-18T07:02:12.671Z,5.40
2023-03-18T07:04:39.845Z,9.50
2023-03-18T07:07:07.225Z,6.73
2023-03-18T07:09:34.027Z,6.57
2023-03-18T07:12:01.165Z,6.17
2023-03-18T07:14:30.802Z,7.37
2023-03-18T07:16:57.654Z,8.40
2023-03-18T07:19:24.908Z,8.63
2023-03-18T07:21:51.778Z,7.63
2023-03-18T07:24:21.185Z,6.57
2023-03-18T07:26:50.166Z,9.70
2023-03-18T07:29:17.313Z,6.97
2023-03-18T07:31:44.258Z,9.43
2023-03-18T07:34:12.549Z,8.10
2023-03-18T07:36:39.343Z,5.50
2023-03-18T07:39:07.326Z,6.57
2023-03-18T07:41:36.046Z,7.30
2023-03-18T07:44:06.803Z,6.63
2023-03-18T07:46:33.946Z,7.17
2023-03-18T07:49:01.135Z,4.70
2023-03-18T07:51:28.083Z,9.30
2023-03-18T07:53:55.196Z,6.50
2023-03-18T07:56:22.210Z,5.32
2023-03-18T07:58:48.884Z,4.90
2023-03-18T08:01:18.435Z,4.78
2023-03-18T08:03:46.657Z,4.60
2023-03-18T08:06:15.557Z,5.47
2023-03-18T08:08:43.640Z,6.53
2023-03-18T08:11:10.659Z,5.45
2023-03-18T08:13:38.839Z,6.00
2023-03-18T08:16:06.239Z,5.00
2023-03-18T08:18:33.378Z,6.65
2023-03-18T08:21:00.460Z,5.57
2023-03-18T08:23:27.233Z,6.65
2023-03-18T08:25:54.041Z,8.48
2023-03-18T08:28:20.838Z,7.93
2023-03-18T08:30:47.808Z,5.22
2023-03-18T08:33:14.640Z,8.05
2023-03-18T08:35:42.720Z,6.45
2023-03-18T08:38:09.942Z,5.05
2023-03-18T08:40:36.792Z,7.20
2023-03-18T08:43:03.675Z,5.40
2023-03-18T08:45:30.695Z,6.22
2023-03-18T08:47:57.601Z,6.22
2023-03-18T08:50:28.470Z,7.00
2023-03-18T08:52:57.852Z,5.22
2023-03-18T08:55:34.523Z,5.75
2023-03-18T08:58:01.572Z,5.10
2023-03-18T09:00:28.427Z,5.97
2023-03-18T09:02:55.266Z,5.38
2023-03-18T09:05:22.326Z,5.95
2023-03-18T09:07:49.069Z,5.82
2023-03-18T09:10:17.715Z,7.82
2023-03-18T09:12:45.889Z,5.05
2023-03-18T09:15:14.882Z,6.50
2023-03-18T09:17:56.582Z,5.97
2023-03-18T09:20:27.566Z,5.80
2023-03-18T09:22:54.723Z,4.78
2023-03-18T09:25:21.660Z,7.07
2023-03-18T09:27:48.847Z,5.53
2023-03-18T09:30:15.799Z,6.15
2023-03-18T09:32:42.848Z,7.13
2023-03-18T09:35:13.034Z,4.97
2023-03-18T09:37:40.573Z,4.45
2023-03-18T09:40:08.584Z,7.43
2023-03-18T09:42:56.562Z,5.80
2023-03-18T09:46:05.794Z,7.65
2023-03-18T09:48:50.612Z,5.45
2023-03-18T09:51:29.737Z,6.40
2023-03-18T09:54:01.529Z,5.10
2023-03-18T09:56:34.803Z,6.03
2023-03-18T09:59:05.880Z,5.28
2023-03-18T10:01:36.298Z,4.50
2023-03-18T10:04:27.876Z,4.30
2023-03-18T10:07:01.611Z,7.03
2023-03-18T10:09:36.133Z,6.28
2023-03-18T10:12:21.590Z,5.40
2023-03-18T10:15:07.329Z,5.63
2023-03-18T10:17:46.965Z,6.13
2023-03-18T10:20:50.691Z,4.28
2023-03-18T10:23:27.951Z,5.88
2023-03-18T10:25:58.917Z,5.03
2023-03-18T10:28:41.329Z,7.05
2023-03-18T10:31:26.434Z,6.45
2023-03-18T10:34:07.126Z,6.25
2023-03-18T10:37:12.594Z,5.30
2023-03-18T10:39:40.528Z,3.78
2023-03-18T10:42:26.799Z,4.05
2023-03-18T10:44:56.290Z,4.20
2023-03-18T10:47:30.604Z,4.88
2023-03-18T10:50:16.328Z,2.80
2023-03-18T10:52:54.782Z,4.47
2023-03-18T10:55:28.128Z,4.53
2023-03-18T10:57:55.142Z,5.28
2023-03-18T11:00:27.931Z,4.93
2023-03-18T11:02:57.056Z,4.32
2023-03-18T11:05:28.394Z,4.63
2023-03-18T11:08:01.163Z,4.85
2023-03-18T11:10:34.694Z,4.53
2023-03-18T11:13:06.291Z,5.70
2023-03-18T11:15:46.772Z,4.65
2023-03-18T11:18:21.986Z,4.85
2023-03-18T11:21:01.284Z,4.53
2023-03-18T11:23:48.958Z,4.60
2023-03-18T11:26:27.491Z,4.60
2023-03-18T11:29:01.281Z,8.18
2023-03-18T11:31:28.901Z,5.68
2023-03-18T11:34:01.206Z,4.40
2023-03-18T11:36:28.337Z,5.47
2023-03-18T11:39:02.030Z,10.48
2023-03-18T11:41:32.224Z,4.70
2023-03-18T11:44:00.185Z,4.63
2023-03-18T11:46:40.525Z,4.18
2023-03-18T11:49:13.042Z,4.22
2023-03-18T11:51:59.898Z,7.38
2023-03-18T11:54:43.318Z,4.25
2023-03-18T11:57:13.022Z,2.92
2023-03-18T11:59:58.339Z,4.97
2023-03-18T12:03:03.661Z,5.95
2023-03-18T12:05:43.585Z,5.20
2023-03-18T12:08:33.865Z,5.32
2023-03-18T12:11:19.208Z,5.07
2023-03-18T12:14:03.810Z,3.88
2023-03-18T12:17:01.229Z,4.38
2023-03-18T12:19:46.916Z,4.88
2023-03-18T12:22:35.967Z,4.15
2023-03-18T12:25:17.065Z,6.18
2023-03-18T12:27:50.246Z,4.82
2023-03-18T12:30:40.888Z,5.25
2023-03-18T12:33:14.310Z,4.03
2023-03-18T12:35:58.560Z,4.03
2023-03-18T12:38:53.372Z,3.63
2023-03-18T12:41:39.631Z,3.35
2023-03-18T12:44:19.535Z,4.30
2023-03-18T12:46:52.225Z,2.95
2023-03-18T12:49:25.344Z,5.20
2023-03-18T12:52:11.891Z,5.30
2023-03-18T12:54:49.146Z,3.42
2023-03-18T12:57:48.683Z,3.42
2023-03-18T13:00:18.782Z,3.85
2023-03-18T13:02:55.403Z,3.88
2023-03-18T13:05:33.237Z,4.38
2023-03-18T13:08:30.761Z,4.55
2023-03-18T13:11:12.425Z,4.75
2023-03-18T13:13:44.114Z,7.05
2023-03-18T13:16:13.767Z,4.53
2023-03-18T13:18:52.578Z,3.97
2023-03-18T13:21:25.926Z,5.70
2023-03-18T13:24:14.715Z,3.22
2023-03-18T13:27:06.495Z,3.55
2023-03-18T13:29:51.531Z,3.55
2023-03-18T13:32:40.453Z,5.00
2023-03-18T13:35:45.039Z,3.38
2023-03-18T13:38:28.556Z,3.45
2023-03-18T13:41:10.080Z,5.03
2023-03-18T13:43:41.753Z,3.78
2023-03-18T13:46:20.995Z,4.72
2023-03-18T13:48:49.433Z,4.57
2023-03-18T13:51:24.261Z,5.72
2023-03-18T13:53:54.255Z,2.95
2023-03-18T13:56:33.545Z,5.15
2023-03-18T13:59:05.906Z,5.07
2023-03-18T14:01:35.607Z,3.55
2023-03-18T14:04:52.163Z,3.42
2023-03-18T14:07:23.655Z,4.97
2023-03-18T14:10:18.350Z,2.78
2023-03-18T14:12:49.341Z,2.70
2023-03-18T14:15:16.333Z,4.63
2023-03-18T14:18:04.429Z,3.03
2023-03-18T14:20:40.107Z,4.03
2023-03-18T14:23:44.188Z,3.25
2023-03-18T14:26:23.124Z,10.48
2023-03-18T14:28:56.177Z,5.45
2023-03-18T14:31:57.764Z,2.22
2023-03-18T14:35:00.771Z,2.55
2023-03-18T14:37:32.836Z,4.13
2023-03-18T14:40:01.932Z,5.50
2023-03-18T14:42:34.805Z,3.10
2023-03-18T14:45:06.821Z,2.88
2023-03-18T14:48:02.961Z,3.08
2023-03-18T14:50:34.303Z,4.13
2023-03-18T14:53:15.565Z,6.40
2023-03-18T14:55:43.052Z,8.27
2023-03-18T14:58:21.091Z,4.25
2023-03-18T15:00:51.641Z,5.35
2023-03-18T15:03:28.444Z,7.15
2023-03-18T15:05:58.713Z,5.00
2023-03-18T15:08:46.845Z,4.65
2023-03-18T15:11:16.433Z,5.25
2023-03-18T15:13:44.613Z,4.63
2023-03-18T15:16:14.317Z,5.22
2023-03-18T15:18:41.410Z,4.38
2023-03-18T15:21:22.476Z,6.03
2023-03-18T15:23:54.187Z,5.72
2023-03-18T15:26:25.479Z,3.17
2023-03-18T15:28:57.903Z,4.03
2023-03-18T15:31:42.750Z,4.45
2023-03-18T15:34:30.670Z,3.50
2023-03-18T15:37:04.590Z,4.85
2023-03-18T15:39:40.134Z,4.13
2023-03-18T15:42:18.589Z,6.28
2023-03-18T15:44:49.928Z,3.97
2023-03-18T15:47:29.004Z,4.85
2023-03-18T15:49:58.840Z,4.22
2023-03-18T15:52:31.044Z,2.97
2023-03-18T15:54:58.437Z,4.90
2023-03-18T15:57:38.152Z,3.17
2023-03-18T16:00:10.422Z,4.95
2023-03-18T16:02:38.212Z,5.90
2023-03-18T16:05:17.572Z,5.13
2023-03-18T16:07:44.292Z,5.68
2023-03-18T16:10:11.569Z,4.25
2023-03-18T16:12:39.592Z,3.85
2023-03-18T16:15:07.774Z,8.45
2023-03-18T16:17:34.458Z,3.45
2023-03-18T16:20:04.093Z,7.25
2023-03-18T16:22:33.566Z,3.67
2023-03-18T16:25:01.184Z,5.30
2023-03-18T16:27:30.632Z,5.15
2023-03-18T16:29:57.397Z,3.78
2023-03-18T16:32:24.385Z,5.13
2023-03-18T16:34:51.188Z,4.00
2023-03-18T16:37:27.228Z,14.52
2023-03-18T16:39:55.810Z,31.33
2023-03-18T16:42:24.023Z,20.40
2023-03-18T16:44:51.697Z,66.78
2023-03-18T16:47:25.436Z,33.50
2023-03-18T16:49:52.438Z,16.65
2023-03-18T16:52:19.325Z,10.30
2023-03-18T16:54:46.139Z,18.60
2023-03-18T16:57:21.576Z,13.90
2023-03-18T16:59:53.070Z,8.02
2023-03-18T17:02:34.516Z,8.15
2023-03-18T17:05:01.930Z,4.82
2023-03-18T17:07:29.595Z,3.80
2023-03-18T17:09:56.805Z,5.28
2023-03-18T17:12:24.847Z,4.03
2023-03-18T17:14:55.335Z,8.15
2023-03-18T17:17:33.581Z,5.40
2023-03-18T17:20:00.269Z,4.75
2023-03-18T17:22:30.576Z,13.57
2023-03-18T17:24:57.464Z,14.25
2023-03-18T17:27:29.584Z,15.73
2023-03-18T17:29:56.499Z,11.10
2023-03-18T17:32:23.203Z,11.20
2023-03-18T17:34:51.760Z,10.82
2023-03-18T17:37:20.185Z,9.32
2023-03-18T17:39:47.132Z,7.93
2023-03-18T17:42:28.619Z,8.75
2023-03-18T17:44:55.745Z,5.97
2023-03-18T17:47:22.684Z,8.02
2023-03-18T17:49:49.345Z,8.82
2023-03-18T17:52:20.913Z,9.48
2023-03-18T17:54:48.098Z,8.70
2023-03-18T17:57:16.573Z,7.72
2023-03-18T17:59:43.411Z,7.93
2023-03-18T18:02:18.014Z,6.27
2023-03-18T18:04:45.948Z,5.50
2023-03-18T18:07:21.764Z,7.20
2023-03-18T18:09:49.581Z,6.10
2023-03-18T18:12:25.297Z,7.20
2023-03-18T18:14:52.078Z,11.77
2023-03-18T18:17:19.151Z,5.90
2023-03-18T18:19:46.480Z,4.67
2023-03-18T18:22:20.807Z,4.93
2023-03-18T18:24:48.676Z,6.63
2023-03-18T18:27:15.925Z,6.27
2023-03-18T18:29:46.046Z,6.27
2023-03-18T18:32:13.266Z,8.43
2023-03-18T18:34:39.960Z,9.83
2023-03-18T18:37:07.274Z,12.20
2023-03-18T18:39:34.047Z,8.37
2023-03-18T18:42:01.321Z,10.27
2023-03-18T18:44:28.513Z,9.23
2023-03-18T18:46:55.629Z,7.63
2023-03-18T18:49:24.458Z,8.10
2023-03-18T18:51:54.613Z,8.50
2023-03-18T18:54:22.758Z,7.67
2023-03-18T18:56:51.120Z,6.53
2023-03-18T18:59:23.247Z,7.27
2023-03-18T19:01:51.374Z,6.70
2023-03-18T19:04:18.189Z,10.17
2023-03-18T19:06:46.360Z,11.00
2023-03-18T19:09:24.586Z,8.40
2023-03-18T19:11:52.344Z,8.30
2023-03-18T19:14:26.277Z,9.13
2023-03-18T19:16:56.413Z,7.33
2023-03-18T19:19:33.129Z,11.07
2023-03-18T19:22:00.417Z,11.20
2023-03-18T19:24:38.080Z,13.30
2023-03-18T19:27:10.547Z,15.10
2023-03-18T19:29:37.406Z,13.67
2023-03-18T19:32:04.497Z,14.80
2023-03-18T19:34:32.521Z,10.53
2023-03-18T19:37:02.638Z,10.03
2023-03-18T19:39:29.554Z,13.47
2023-03-18T19:41:56.524Z,11.73
2023-03-18T19:44:26.280Z,9.83
2023-03-18T19:46:59.355Z,9.63
2023-03-18T19:49:35.411Z,8.73
2023-03-18T19:52:16.497Z,8.43
2023-03-18T19:54:47.042Z,9.83
2023-03-18T19:57:22.592Z,10.40
2023-03-18T19:59:50.618Z,13.43
2023-03-18T20:02:31.296Z,11.70
2023-03-18T20:05:00.856Z,11.67
2023-03-18T20:07:30.346Z,10.00
2023-03-18T20:09:57.252Z,9.13
2023-03-18T20:12:40.969Z,9.43
2023-03-18T20:15:13.091Z,9.73
2023-03-18T20:17:42.504Z,10.17
2023-03-18T20:20:15.583Z,8.93
2023-03-18T20:22:48.355Z,10.63
2023-03-18T20:25:41.285Z,15.47
2023-03-18T20:28:14.627Z,11.30
2023-03-18T20:30:41.508Z,12.50
2023-03-18T20:33:08.653Z,10.27
2023-03-18T20:35:43.737Z,10.97
2023-03-18T20:38:14.301Z,8.10
2023-03-18T20:40:42.571Z,7.80
2023-03-18T20:43:15.918Z,7.77
2023-03-18T20:45:43.244Z,11.77
2023-03-18T20:48:10.602Z,13.80
2023-03-18T20:50:37.859Z,13.40
2023-03-18T20:53:08.918Z,19.25
2023-03-18T20:55:36.410Z,14.97
2023-03-18T20:58:04.130Z,11.97
2023-03-18T21:00:33.296Z,10.20
2023-03-18T21:03:02.097Z,11.20
2023-03-18T21:05:28.952Z,12.80
2023-03-18T21:07:55.986Z,11.00
2023-03-18T21:10:27.360Z,11.07
2023-03-18T21:12:54.210Z,12.77
2023-03-18T21:15:26.626Z,16.20
2023-03-18T21:17:54.184Z,10.10
2023-03-18T21:20:26.530Z,10.90
2023-03-18T21:22:54.364Z,8.43
2023-03-18T21:25:24.052Z,7.93
2023-03-18T21:27:51.643Z,6.83
2023-03-18T21:30:22.021Z,10.47
2023-03-18T21:32:53.044Z,7.00
2023-03-18T21:35:26.708Z,8.80
2023-03-18T21:37:53.681Z,9.77
2023-03-18T21:40:23.167Z,12.43
2023-03-18T21:42:51.609Z,8.13
2023-03-18T21:45:23.638Z,8.33
2023-03-18T21:47:52.681Z,8.90
2023-03-18T21:50:25.441Z,8.40
2023-03-18T21:52:53.734Z,8.60
2023-03-18T21:55:21.614Z,11.57
2023-03-18T21:57:49.306Z,8.60
2023-03-18T22:00:20.077Z,10.20
2023-03-18T22:02:47.630Z,7.23
2023-03-18T22:05:18.651Z,6.97
2023-03-18T22:07:46.074Z,9.07
2023-03-18T22:10:16.659Z,8.47
2023-03-18T22:12:44.359Z,5.60
2023-03-18T22:15:35.093Z,8.33
2023-03-18T22:18:02.648Z,7.57
2023-03-18T22:20:29.997Z,5.43
2023-03-18T22:22:56.943Z,9.10
2023-03-18T22:25:33.236Z,8.87
2023-03-18T22:28:01.039Z,9.10
2023-03-18T22:30:30.421Z,9.03
2023-03-18T22:32:58.679Z,9.23
2023-03-18T22:35:27.561Z,6.60
2023-03-18T22:37:55.272Z,7.13
2023-03-18T22:40:32.272Z,7.97
2023-03-18T22:43:02.246Z,9.57
2023-03-18T22:45:32.281Z,6.47
2023-03-18T22:48:02.623Z,9.13
2023-03-18T22:50:33.667Z,7.23
2023-03-18T22:53:03.714Z,8.73
2023-03-18T22:55:35.663Z,9.60
2023-03-18T22:58:02.676Z,15.77
2023-03-18T23:00:43.873Z,7.27
2023-03-18T23:03:17.606Z,9.83
2023-03-18T23:05:46.976Z,11.87
2023-03-18T23:08:14.465Z,9.77
2023-03-18T23:10:42.760Z,9.37
2023-03-18T23:13:34.598Z,11.10
2023-03-18T23:16:04.294Z,6.77
2023-03-18T23:18:31.565Z,8.13
2023-03-18T23:20:58.706Z,5.83
2023-03-18T23:23:26.049Z,6.60
2023-03-18T23:25:52.917Z,8.33
2023-03-18T23:28:19.874Z,7.70
2023-03-18T23:30:49.311Z,9.23
2023-03-18T23:33:16.832Z,7.90
2023-03-18T23:35:44.846Z,9.03
2023-03-18T23:38:11.882Z,6.50
2023-03-18T23:40:38.852Z,9.07
2023-03-18T23:43:06.615Z,8.40
2023-03-18T23:45:34.160Z,9.57
2023-03-18T23:48:01.413Z,7.97
2023-03-18T23:50:28.210Z,7.50
2023-03-18T23:52:55.489Z,10.20
2023-03-18T23:55:34.143Z,8.77
2023-03-18T23:58:02.435Z,10.90
